Time;durP1;ratioP1;P1;durP2;ratioP2;P2;SDS_P1;SDS_P2;PMS_P1;PMS_P2;Temp;Humidity;BMP_temperature;BMP_pressure;BME280_temperature;BME280_humidity;BME280_pressure;Samples;Min_cycle;Max_cycle;Signal;HPM_P1;HPM_P2
2022/01/14 00:01:47;;;;;;;12.50;8.23;;;16.80;54.90;;;;;;4952921;28;93689;-73
2022/01/14 00:04:13;;;;;;;10.88;7.70;;;16.80;54.90;;;;;;4952547;28;92445;-74
2022/01/14 00:06:39;;;;;;;10.50;7.70;;;16.80;54.80;;;;;;4953149;28;92156;-73
2022/01/14 00:09:11;;;;;;;11.77;8.13;;;16.90;54.80;;;;;;4952231;28;93767;-73
2022/01/14 00:11:47;;;;;;;10.68;7.43;;;16.90;54.80;;;;;;4953325;28;93886;-74
2022/01/14 00:16:43;;;;;;;11.05;7.47;;;16.80;54.70;;;;;;4954418;28;92584;-73
2022/01/14 00:19:10;;;;;;;11.27;7.47;;;16.90;54.60;;;;;;4957338;28;93735;-74
2022/01/14 00:21:38;;;;;;;10.50;7.38;;;16.80;54.60;;;;;;4958011;28;92527;-72
2022/01/14 00:24:11;;;;;;;11.23;7.97;;;16.90;54.60;;;;;;4957285;28;92999;-72
2022/01/14 00:32:12;;;;;;;12.82;7.53;;;16.90;54.60;;;;;;4953770;28;92264;-73
2022/01/14 00:34:38;;;;;;;11.90;7.18;;;16.90;54.50;;;;;;4953487;28;92857;-73
2022/01/14 00:37:04;;;;;;;12.20;8.07;;;16.90;54.40;;;;;;4952910;28;93043;-73
2022/01/14 00:39:30;;;;;;;10.75;7.40;;;16.90;54.40;;;;;;4951997;28;95296;-73
2022/01/14 00:41:56;;;;;;;10.90;6.97;;;16.90;54.40;;;;;;4953142;28;93988;-73
2022/01/14 00:44:22;;;;;;;10.45;7.40;;;16.90;54.40;;;;;;4951812;28;92609;-73
2022/01/14 00:46:49;;;;;;;11.27;7.20;;;16.90;54.30;;;;;;4955637;28;92857;-73
2022/01/14 00:49:18;;;;;;;10.35;7.00;;;16.90;54.30;;;;;;4953698;28;94237;-72
2022/01/14 00:51:45;;;;;;;10.35;6.15;;;16.90;54.20;;;;;;4951460;28;92701;-73
2022/01/14 00:54:10;;;;;;;11.00;6.55;;;17.00;54.20;;;;;;4952839;28;92685;-73
2022/01/14 00:59:14;;;;;;;9.15;6.70;;;17.00;54.10;;;;;;4951530;28;92990;-74
2022/01/14 01:01:42;;;;;;;10.60;7.28;;;17.00;54.10;;;;;;4952220;28;92691;-74
2022/01/14 01:04:11;;;;;;;10.85;7.13;;;17.00;54.10;;;;;;4951467;28;95230;-74
2022/01/14 01:06:37;;;;;;;9.95;6.78;;;17.00;54.10;;;;;;4951919;28;92741;-74
2022/01/14 01:09:09;;;;;;;9.85;7.00;;;16.90;54.00;;;;;;4953569;28;93046;-73
2022/01/14 01:11:48;;;;;;;9.55;6.65;;;17.00;54.00;;;;;;4952115;28;93199;-74
2022/01/14 01:14:21;;;;;;;10.15;6.70;;;17.00;53.90;;;;;;4953776;28;92710;-74
2022/01/14 01:16:48;;;;;;;9.73;7.03;;;16.90;54.00;;;;;;4955465;28;92785;-72
2022/01/14 01:19:15;;;;;;;8.98;6.78;;;16.90;54.00;;;;;;4955128;28;93153;-73
2022/01/14 01:21:41;;;;;;;9.70;6.63;;;16.90;54.00;;;;;;4956652;28;92882;-73
2022/01/14 01:24:10;;;;;;;10.45;6.80;;;16.90;53.90;;;;;;4955457;28;93013;-73
2022/01/14 01:26:39;;;;;;;8.82;6.40;;;16.90;53.90;;;;;;4954952;28;92980;-73
2022/01/14 01:31:40;;;;;;;8.55;5.93;;;16.90;53.90;;;;;;4954686;28;93886;-72
2022/01/14 01:34:18;;;;;;;8.90;6.50;;;16.90;54.00;;;;;;4955173;28;92483;-73
2022/01/14 01:36:48;;;;;;;8.88;6.18;;;16.90;54.00;;;;;;4955316;28;92701;-73
2022/01/14 01:39:17;;;;;;;9.25;6.60;;;16.90;54.10;;;;;;4954677;28;94284;-73
2022/01/14 01:41:52;;;;;;;10.35;6.55;;;16.90;54.00;;;;;;4954986;28;93804;-74
2022/01/14 01:44:19;;;;;;;9.48;6.63;;;16.90;54.00;;;;;;4953961;28;92722;-73
2022/01/14 01:46:47;;;;;;;9.25;6.57;;;16.90;54.10;;;;;;4955745;28;92003;-72
2022/01/14 01:49:15;;;;;;;9.82;6.55;;;16.80;54.00;;;;;;4954250;28;92912;-73
2022/01/14 01:51:42;;;;;;;8.57;6.50;;;16.80;54.00;;;;;;4954369;28;93662;-72
2022/01/14 01:54:08;;;;;;;8.40;6.25;;;16.80;54.00;;;;;;4954034;28;95106;-74
2022/01/14 01:56:34;;;;;;;9.10;6.30;;;16.80;54.00;;;;;;4956188;28;92845;-72
2022/01/14 01:58:59;;;;;;;8.63;6.72;;;16.90;54.10;;;;;;4955830;28;93499;-73
2022/01/14 02:01:33;;;;;;;9.73;6.45;;;16.80;54.10;;;;;;4958049;28;92908;-73
2022/01/14 02:04:00;;;;;;;9.40;6.43;;;16.80;54.00;;;;;;4959689;28;92518;-74
2022/01/14 02:06:25;;;;;;;8.52;6.30;;;16.80;54.10;;;;;;4958215;28;93247;-74
2022/01/14 02:08:51;;;;;;;9.90;6.53;;;16.80;54.20;;;;;;4958678;28;93022;-74
2022/01/14 02:11:17;;;;;;;7.97;6.00;;;16.80;54.10;;;;;;4956242;28;92816;-72
2022/01/14 02:13:44;;;;;;;10.40;6.47;;;16.80;54.10;;;;;;4955618;28;92879;-73
2022/01/14 02:23:54;;;;;;;10.90;6.95;;;16.70;54.10;;;;;;4955337;28;92497;-74
2022/01/14 02:26:22;;;;;;;8.80;6.50;;;16.70;54.20;;;;;;4952534;28;92611;-73
2022/01/14 02:28:50;;;;;;;8.48;6.40;;;16.70;54.10;;;;;;4954833;28;93022;-73
2022/01/14 02:31:17;;;;;;;9.07;6.10;;;16.70;54.10;;;;;;4954071;28;93619;-72
2022/01/14 02:33:43;;;;;;;9.40;6.82;;;16.70;54.10;;;;;;4954099;28;92529;-73
2022/01/14 02:36:10;;;;;;;7.70;6.03;;;16.70;54.10;;;;;;4955734;28;91790;-72
2022/01/14 02:38:39;;;;;;;9.30;6.43;;;16.70;54.10;;;;;;4954066;28;94097;-73
2022/01/14 02:41:05;;;;;;;8.32;6.22;;;16.70;54.20;;;;;;4954248;28;92845;-74
2022/01/14 02:43:30;;;;;;;8.48;5.95;;;16.70;54.20;;;;;;4953032;28;95282;-73
2022/01/14 02:45:57;;;;;;;8.85;6.47;;;16.70;54.10;;;;;;4954444;28;93033;-73
2022/01/14 02:48:26;;;;;;;8.38;6.70;;;16.70;54.10;;;;;;4954312;28;92890;-73
2022/01/14 02:50:58;;;;;;;9.10;6.30;;;16.70;54.10;;;;;;4956747;28;93036;-74
2022/01/14 02:56:05;;;;;;;8.80;6.32;;;16.70;54.10;;;;;;4954210;28;92641;-73
2022/01/14 02:58:35;;;;;;;9.13;6.82;;;16.70;54.10;;;;;;4953552;28;92929;-74
2022/01/14 03:01:04;;;;;;;8.73;6.50;;;16.70;54.10;;;;;;4954008;28;94115;-74
2022/01/14 03:03:31;;;;;;;9.65;6.78;;;16.70;54.10;;;;;;4953787;28;92756;-73
2022/01/14 03:05:57;;;;;;;8.15;6.07;;;16.60;54.00;;;;;;4953370;28;92983;-73
2022/01/14 03:08:23;;;;;;;10.30;6.78;;;16.60;54.00;;;;;;4952070;28;96879;-73
2022/01/14 03:11:09;;;;;;;7.80;6.35;;;16.70;54.10;;;;;;4953387;28;95158;-73
2022/01/14 03:13:36;;;;;;;9.00;6.78;;;16.70;53.90;;;;;;4954094;28;92997;-73
2022/01/14 03:16:03;;;;;;;8.77;6.30;;;16.70;54.00;;;;;;4953973;28;92883;-74
2022/01/14 03:18:39;;;;;;;8.18;5.90;;;16.70;53.90;;;;;;4952678;28;94064;-74
2022/01/14 03:21:12;;;;;;;9.55;6.57;;;16.70;53.90;;;;;;4952689;28;94302;-73
2022/01/14 03:23:46;;;;;;;9.32;6.80;;;16.60;53.80;;;;;;4953457;28;92908;-73
2022/01/14 03:26:18;;;;;;;8.00;6.47;;;16.70;53.90;;;;;;4953616;28;91673;-73
2022/01/14 03:28:44;;;;;;;8.70;6.07;;;16.70;53.90;;;;;;4953390;28;94421;-74
2022/01/14 03:31:10;;;;;;;8.88;6.25;;;16.60;53.80;;;;;;4952783;28;93470;-73
2022/01/14 03:33:37;;;;;;;8.38;6.55;;;16.70;53.90;;;;;;4953407;28;95459;-73
2022/01/14 03:36:05;;;;;;;9.98;6.85;;;16.70;53.80;;;;;;4953176;28;92746;-74
2022/01/14 03:38:32;;;;;;;9.13;6.22;;;16.70;53.80;;;;;;4952923;28;95291;-73
2022/01/14 03:40:58;;;;;;;8.60;6.38;;;16.70;53.80;;;;;;4951705;28;92807;-73
2022/01/14 03:43:23;;;;;;;8.70;6.60;;;16.70;53.70;;;;;;4953267;28;93414;-72
2022/01/14 03:45:50;;;;;;;8.98;6.13;;;16.70;53.70;;;;;;4951899;28;94870;-73
2022/01/14 03:48:17;;;;;;;9.27;6.43;;;16.70;54.70;;;;;;4951074;28;94631;-72
2022/01/14 03:50:43;;;;;;;8.30;6.55;;;16.70;53.70;;;;;;4951762;28;95240;-73
2022/01/14 03:53:11;;;;;;;10.90;6.85;;;16.70;53.70;;;;;;4952592;28;93136;-73
2022/01/14 03:55:42;;;;;;;9.35;6.38;;;16.70;53.60;;;;;;4951767;28;92909;-73
2022/01/14 03:58:09;;;;;;;8.48;6.40;;;16.70;53.70;;;;;;4950398;28;95745;-74
2022/01/14 05:43:15;;;;;;;6.70;5.05;;;18.00;51.00;;;;;;5033406;22;96978;-73
2022/01/14 05:45:40;;;;;;;6.63;4.90;;;18.00;51.10;;;;;;4914431;28;92512;-73
2022/01/14 05:48:06;;;;;;;6.32;4.30;;;18.00;51.00;;;;;;4911719;28;96552;-73
2022/01/14 05:50:32;;;;;;;6.25;4.43;;;18.00;51.00;;;;;;4913949;28;95225;-73
2022/01/14 05:52:57;;;;;;;5.53;4.50;;;18.00;51.00;;;;;;4913610;28;93147;-73
2022/01/14 05:55:23;;;;;;;6.20;4.40;;;18.00;51.10;;;;;;4913760;28;92968;-74
2022/01/14 05:57:49;;;;;;;7.03;4.78;;;18.00;51.10;;;;;;4913116;28;95109;-74
2022/01/14 06:00:18;;;;;;;5.78;4.53;;;18.00;51.10;;;;;;4913945;28;92873;-74
2022/01/14 06:02:44;;;;;;;5.63;4.20;;;18.00;51.00;;;;;;4913738;28;93013;-73
2022/01/14 06:05:10;;;;;;;7.80;4.43;;;18.00;51.10;;;;;;4914407;28;91777;-73
2022/01/14 06:07:36;;;;;;;6.25;4.30;;;18.00;51.40;;;;;;4913110;28;94070;-74
2022/01/14 06:10:03;;;;;;;4.95;3.70;;;18.00;51.50;;;;;;4914006;28;93787;-74
2022/01/14 06:12:29;;;;;;;5.18;4.05;;;18.00;51.50;;;;;;4912489;28;94854;-74
2022/01/14 06:14:54;;;;;;;7.50;4.35;;;18.00;51.40;;;;;;4914250;28;92878;-74
2022/01/14 06:17:20;;;;;;;5.18;4.22;;;18.00;51.40;;;;;;4913286;28;93161;-73
2022/01/14 06:19:46;;;;;;;5.50;4.05;;;18.00;51.50;;;;;;4913929;28;92682;-73
2022/01/14 06:22:11;;;;;;;9.98;4.03;;;18.00;51.50;;;;;;4913275;28;92826;-73
2022/01/14 06:24:37;;;;;;;4.82;3.90;;;18.00;51.70;;;;;;4914548;28;93097;-73
2022/01/14 06:27:03;;;;;;;5.70;4.35;;;17.90;51.90;;;;;;4913444;28;93017;-73
2022/01/14 06:29:30;;;;;;;4.65;3.95;;;17.90;51.90;;;;;;4914235;28;93231;-72
2022/01/14 06:31:55;;;;;;;5.95;4.32;;;17.90;51.90;;;;;;4914973;28;92912;-73
2022/01/14 06:34:21;;;;;;;5.90;4.60;;;17.80;52.10;;;;;;4914204;28;93670;-73
2022/01/14 06:36:46;;;;;;;5.90;4.20;;;17.80;52.30;;;;;;4912442;28;99421;-74
2022/01/14 06:39:12;;;;;;;5.78;4.28;;;17.70;52.30;;;;;;4913474;28;95682;-73
2022/01/14 06:41:38;;;;;;;5.50;4.00;;;17.70;52.30;;;;;;4914175;28;92634;-73
2022/01/14 06:44:05;;;;;;;5.43;4.32;;;17.70;52.50;;;;;;4913117;28;92574;-72
2022/01/14 06:46:30;;;;;;;5.10;4.10;;;17.60;52.50;;;;;;4913057;28;93099;-72
2022/01/14 06:48:56;;;;;;;6.68;4.55;;;17.60;52.60;;;;;;4912344;28;93005;-73
2022/01/14 06:51:22;;;;;;;9.45;4.60;;;17.50;52.70;;;;;;4913388;28;92585;-74
2022/01/14 06:53:48;;;;;;;11.48;4.45;;;17.50;53.10;;;;;;4914020;28;92165;-78
2022/01/14 06:56:15;;;;;;;7.40;4.18;;;17.50;52.90;;;;;;4911827;28;93373;-75
2022/01/14 06:58:42;;;;;;;8.27;4.72;;;17.50;52.80;;;;;;4913087;28;93198;-73
2022/01/14 07:01:07;;;;;;;7.07;4.18;;;17.40;52.80;;;;;;4912194;28;95797;-74
2022/01/14 07:03:34;;;;;;;6.85;4.68;;;17.40;52.90;;;;;;4912150;28;92983;-72
2022/01/14 07:06:00;;;;;;;9.07;4.60;;;17.40;53.10;;;;;;4912701;28;94594;-74
2022/01/14 07:08:25;;;;;;;7.05;4.18;;;17.40;53.30;;;;;;4913437;28;92622;-74
2022/01/14 07:10:51;;;;;;;10.02;4.70;;;17.50;53.50;;;;;;4912469;28;93515;-73
2022/01/14 07:13:16;;;;;;;6.80;4.35;;;17.60;53.70;;;;;;4913259;28;92453;-73
2022/01/14 07:15:42;;;;;;;6.95;4.40;;;17.70;53.80;;;;;;4912580;28;93093;-73
2022/01/14 07:18:09;;;;;;;6.40;4.15;;;17.80;53.90;;;;;;4913421;28;93748;-72
2022/01/14 07:20:37;;;;;;;7.22;3.92;;;17.90;53.80;;;;;;4912963;28;92488;-72
2022/01/14 07:23:03;;;;;;;8.23;4.05;;;18.00;53.70;;;;;;4913070;28;93006;-72
2022/01/14 07:25:29;;;;;;;9.02;3.92;;;18.10;53.70;;;;;;4910185;28;95992;-72
2022/01/14 07:27:56;;;;;;;10.82;4.10;;;18.20;53.70;;;;;;4911845;28;95143;-72
2022/01/14 07:30:23;;;;;;;9.43;4.10;;;18.20;53.80;;;;;;4912425;28;93924;-72
2022/01/14 07:32:48;;;;;;;8.15;4.00;;;18.30;53.70;;;;;;4913241;28;93859;-73
2022/01/14 07:35:14;;;;;;;7.65;3.80;;;18.30;53.70;;;;;;4912843;28;93321;-73
2022/01/14 07:37:40;;;;;;;7.30;3.78;;;18.40;53.60;;;;;;4912091;28;93125;-72
2022/01/14 07:40:07;;;;;;;7.22;4.00;;;18.40;53.80;;;;;;4913404;28;92983;-73
2022/01/14 07:42:34;;;;;;;8.32;4.07;;;18.50;53.80;;;;;;4913036;28;91954;-74
2022/01/14 07:45:01;;;;;;;7.40;3.70;;;18.50;53.70;;;;;;4914164;28;93592;-74
2022/01/14 07:47:27;;;;;;;10.18;3.75;;;18.50;53.60;;;;;;4921431;28;93975;-73
2022/01/14 07:49:53;;;;;;;8.70;3.75;;;18.50;53.50;;;;;;4916607;28;96848;-74
2022/01/14 07:52:19;;;;;;;7.13;3.42;;;18.60;53.60;;;;;;4917359;28;93000;-74
2022/01/14 07:54:45;;;;;;;7.93;3.70;;;18.60;53.50;;;;;;4915489;28;93980;-72
2022/01/14 07:57:11;;;;;;;5.82;3.25;;;18.50;53.50;;;;;;4918665;28;93113;-73
2022/01/14 07:59:37;;;;;;;7.05;3.50;;;18.50;54.50;;;;;;4922071;28;92930;-72
2022/01/14 08:02:04;;;;;;;8.65;3.55;;;18.50;53.50;;;;;;4913430;28;93111;-73
2022/01/14 08:04:33;;;;;;;11.35;3.65;;;18.50;53.50;;;;;;4914905;28;93209;-73
2022/01/14 08:07:08;;;;;;;8.52;3.60;;;18.50;53.60;;;;;;4930991;28;94326;-73
2022/01/14 08:09:41;;;;;;;5.78;3.20;;;18.50;53.70;;;;;;4930707;28;92992;-73
2022/01/14 08:12:08;;;;;;;7.43;3.00;;;18.50;53.70;;;;;;4926784;28;92889;-74
2022/01/14 08:14:34;;;;;;;8.27;3.47;;;18.50;53.80;;;;;;4924063;28;97187;-72
2022/01/14 08:17:00;;;;;;;9.88;3.70;;;18.50;53.80;;;;;;4916150;28;96610;-73
2022/01/14 08:19:33;;;;;;;7.30;3.40;;;18.50;53.90;;;;;;4920153;28;93929;-72
2022/01/14 08:22:01;;;;;;;10.90;3.10;;;18.50;54.10;;;;;;4915102;28;92952;-74
2022/01/14 08:24:27;;;;;;;6.72;3.35;;;18.50;54.20;;;;;;4916571;28;94102;-74
2022/01/14 08:26:52;;;;;;;9.55;3.33;;;18.50;54.20;;;;;;4916068;28;92929;-74
2022/01/14 08:29:18;;;;;;;8.43;3.22;;;18.60;54.10;;;;;;4914039;28;93022;-74
2022/01/14 08:31:44;;;;;;;7.65;3.28;;;18.60;54.00;;;;;;4915552;28;92276;-74
2022/01/14 08:34:10;;;;;;;6.07;3.05;;;18.60;53.90;;;;;;4895866;28;93217;-76
2022/01/14 08:36:36;;;;;;;7.32;3.10;;;18.50;53.90;;;;;;4901508;28;99275;-72
2022/01/14 08:39:02;;;;;;;8.35;3.25;;;18.60;53.80;;;;;;4921353;28;95192;-73
2022/01/14 08:41:29;;;;;;;8.38;3.67;;;18.60;53.50;;;;;;4914729;28;92582;-73
2022/01/14 08:43:58;;;;;;;5.82;3.22;;;18.60;53.30;;;;;;4913189;28;95070;-73
2022/01/14 08:46:23;;;;;;;7.72;3.70;;;18.60;52.90;;;;;;4914487;28;92722;-73
2022/01/14 08:48:49;;;;;;;8.05;3.70;;;18.70;52.80;;;;;;4907287;28;92628;-73
2022/01/14 08:51:14;;;;;;;8.77;3.40;;;18.60;52.50;;;;;;4894883;28;92577;-72
2022/01/14 08:53:40;;;;;;;8.02;3.90;;;18.70;52.30;;;;;;4895335;28;100072;-73
2022/01/14 08:56:06;;;;;;;10.43;3.75;;;18.70;52.10;;;;;;4895358;28;93870;-72
2022/01/14 08:58:32;;;;;;;9.75;3.60;;;18.70;51.90;;;;;;4895348;28;94318;-73
2022/01/14 09:00:57;;;;;;;8.25;4.28;;;18.80;51.80;;;;;;4895389;28;93035;-72
2022/01/14 09:03:23;;;;;;;6.90;3.47;;;18.80;51.50;;;;;;4932056;28;95392;-73
2022/01/14 09:05:49;;;;;;;9.30;3.47;;;18.80;51.20;;;;;;4929725;28;97901;-73
2022/01/14 09:08:15;;;;;;;7.70;3.95;;;18.80;51.00;;;;;;4914314;28;94979;-73
2022/01/14 09:10:41;;;;;;;6.65;3.58;;;18.80;50.90;;;;;;4913726;28;93414;-73
2022/01/14 09:13:06;;;;;;;7.03;3.75;;;18.80;50.70;;;;;;4923382;28;94208;-73
2022/01/14 09:15:33;;;;;;;6.30;3.67;;;18.90;50.50;;;;;;4934269;28;93143;-73
2022/01/14 09:17:59;;;;;;;7.57;3.72;;;18.90;50.40;;;;;;4933438;28;93044;-72
2022/01/14 09:20:27;;;;;;;9.27;4.05;;;18.90;50.10;;;;;;4934051;28;92355;-73
2022/01/14 09:22:57;;;;;;;8.60;4.10;;;18.90;50.00;;;;;;4933964;28;93603;-73
2022/01/14 09:25:23;;;;;;;7.72;3.80;;;18.90;50.00;;;;;;4933975;28;93341;-73
2022/01/14 09:27:50;;;;;;;8.02;3.92;;;18.90;49.90;;;;;;4932107;28;95363;-74
2022/01/14 09:30:16;;;;;;;7.40;3.28;;;18.80;49.80;;;;;;4934700;28;92914;-72
2022/01/14 09:32:42;;;;;;;8.73;4.15;;;18.80;49.70;;;;;;4933789;28;93234;-72
2022/01/14 09:35:08;;;;;;;8.38;3.38;;;18.90;49.70;;;;;;4931116;28;92954;-72
2022/01/14 09:37:35;;;;;;;9.18;4.07;;;18.90;49.50;;;;;;4933639;28;93088;-73
2022/01/14 09:40:01;;;;;;;8.20;3.83;;;18.90;49.30;;;;;;4934038;28;93132;-72
2022/01/14 09:42:30;;;;;;;7.18;3.40;;;18.90;49.30;;;;;;4933823;28;94129;-73
2022/01/14 09:44:55;;;;;;;7.05;3.63;;;18.90;49.20;;;;;;4913220;28;93235;-73
2022/01/14 09:47:22;;;;;;;8.38;3.47;;;19.00;49.10;;;;;;4919051;28;92921;-71
2022/01/14 09:49:48;;;;;;;10.25;3.50;;;19.00;49.00;;;;;;4933382;28;92807;-72
2022/01/14 09:52:15;;;;;;;9.60;3.65;;;19.00;48.80;;;;;;4932283;28;94988;-72
2022/01/14 09:54:44;;;;;;;8.00;3.58;;;19.00;48.70;;;;;;4933238;28;98368;-72
2022/01/14 09:57:12;;;;;;;6.65;3.08;;;19.10;48.80;;;;;;4933558;28;92993;-72
2022/01/14 09:59:38;;;;;;;9.60;3.22;;;19.10;48.60;;;;;;4933478;28;92848;-72
2022/01/14 10:02:04;;;;;;;7.85;3.25;;;19.10;48.40;;;;;;4934423;28;94137;-72
2022/01/14 10:04:33;;;;;;;5.82;3.00;;;19.10;48.30;;;;;;4936273;28;93233;-72
2022/01/14 10:07:00;;;;;;;6.40;3.10;;;19.20;48.30;;;;;;4937288;28;92523;-72
2022/01/14 10:09:38;;;;;;;7.20;2.85;;;19.20;48.20;;;;;;4936135;28;92166;-72
2022/01/14 10:12:04;;;;;;;8.23;3.40;;;19.20;48.00;;;;;;4934311;28;93112;-72
2022/01/14 10:14:31;;;;;;;6.38;3.28;;;19.20;48.00;;;;;;4933036;28;94832;-72
2022/01/14 10:17:01;;;;;;;6.85;2.97;;;19.30;47.90;;;;;;4931969;28;95389;-72
2022/01/14 10:19:29;;;;;;;7.15;2.67;;;19.30;47.80;;;;;;4934342;28;92956;-72
2022/01/14 10:21:56;;;;;;;5.10;2.63;;;19.30;47.70;;;;;;4932452;28;94154;-72
2022/01/14 10:24:29;;;;;;;5.45;2.70;;;19.30;47.70;;;;;;4933671;28;94688;-72
2022/01/14 10:26:57;;;;;;;8.70;3.05;;;19.20;47.70;;;;;;4919246;28;92602;-72
2022/01/14 10:29:32;;;;;;;6.93;2.90;;;19.20;47.80;;;;;;4914796;28;92556;-72
2022/01/14 10:32:00;;;;;;;7.18;3.33;;;19.20;47.70;;;;;;4914148;28;93003;-72
2022/01/14 10:34:26;;;;;;;5.47;2.58;;;19.20;47.60;;;;;;4914322;28;93812;-72
2022/01/14 10:37:12;;;;;;;8.32;2.88;;;19.30;47.60;;;;;;4915194;28;93104;-72
2022/01/14 10:39:49;;;;;;;8.88;3.30;;;19.30;47.50;;;;;;4914516;28;92560;-73
2022/01/14 10:42:26;;;;;;;6.68;2.72;;;19.30;47.50;;;;;;4911622;28;96612;-73
2022/01/14 10:44:54;;;;;;;7.95;3.05;;;19.20;47.50;;;;;;4913511;28;95224;-73
2022/01/14 10:47:23;;;;;;;6.00;2.53;;;19.20;47.60;;;;;;4912533;28;92788;-73
2022/01/14 10:49:55;;;;;;;6.97;3.03;;;19.10;47.60;;;;;;4913632;28;93181;-73
2022/01/14 10:52:23;;;;;;;8.60;3.23;;;19.20;47.60;;;;;;4912469;28;94584;-73
2022/01/14 10:54:51;;;;;;;6.72;2.55;;;19.20;47.50;;;;;;4913934;28;95085;-73
2022/01/14 10:57:26;;;;;;;5.90;2.63;;;19.20;47.40;;;;;;4914386;28;92748;-73
2022/01/14 11:00:16;;;;;;;8.00;3.08;;;19.30;48.30;;;;;;4914869;28;91897;-73
2022/01/14 11:02:48;;;;;;;5.88;2.90;;;19.30;47.30;;;;;;4915479;28;94411;-73
2022/01/14 11:05:20;;;;;;;6.88;2.85;;;19.30;47.30;;;;;;4913455;28;93744;-73
2022/01/14 11:07:48;;;;;;;6.03;2.90;;;19.30;47.10;;;;;;4913054;28;97083;-73
2022/01/14 11:10:36;;;;;;;6.13;2.58;;;19.40;47.10;;;;;;4913779;28;92901;-72
2022/01/14 11:13:06;;;;;;;5.82;2.70;;;19.40;46.90;;;;;;4913406;28;93212;-73
2022/01/14 11:15:34;;;;;;;7.35;2.88;;;19.40;47.00;;;;;;4912215;28;93255;-73
2022/01/14 11:18:03;;;;;;;8.32;2.60;;;19.40;46.80;;;;;;4911505;28;93096;-72
2022/01/14 11:20:33;;;;;;;5.50;2.17;;;19.50;46.80;;;;;;4912683;28;92936;-75
2022/01/14 11:23:15;;;;;;;7.47;2.30;;;19.50;46.70;;;;;;4912666;28;94883;-76
2022/01/14 11:26:06;;;;;;;5.72;2.55;;;19.50;46.60;;;;;;4911582;28;93947;-73
2022/01/14 11:28:36;;;;;;;9.90;3.28;;;19.50;46.70;;;;;;4912892;28;92979;-75
2022/01/14 11:31:28;;;;;;;13.13;3.80;;;19.50;46.80;;;;;;4912427;28;92554;-75
2022/01/14 11:33:57;;;;;;;8.35;4.30;;;19.50;47.10;;;;;;4911108;28;96207;-74
2022/01/14 11:36:24;;;;;;;9.07;3.70;;;19.50;47.20;;;;;;4912873;28;97244;-75
2022/01/14 11:38:50;;;;;;;14.45;4.28;;;19.40;47.30;;;;;;4912861;28;92696;-75
2022/01/14 11:41:40;;;;;;;10.45;3.85;;;19.40;47.50;;;;;;4915012;28;92974;-74
2022/01/14 11:44:08;;;;;;;9.68;3.58;;;19.40;47.70;;;;;;4930298;28;95030;-73
2022/01/14 11:46:37;;;;;;;8.57;3.42;;;19.50;47.80;;;;;;4930609;28;93060;-74
2022/01/14 11:49:34;;;;;;;10.55;3.50;;;19.50;47.70;;;;;;4932887;28;92839;-74
2022/01/14 11:52:01;;;;;;;8.77;3.13;;;19.50;47.60;;;;;;4935622;28;91984;-73
2022/01/14 11:54:47;;;;;;;10.50;3.05;;;19.50;47.70;;;;;;4938226;28;94104;-74
2022/01/14 11:57:50;;;;;;;7.93;3.10;;;19.50;47.60;;;;;;4931701;28;93012;-75
2022/01/14 12:00:25;;;;;;;7.22;3.05;;;19.50;47.70;;;;;;4931868;28;96093;-74
2022/01/14 12:02:51;;;;;;;9.93;3.17;;;19.40;47.70;;;;;;4931214;28;92893;-74
2022/01/14 12:05:23;;;;;;;6.95;2.65;;;19.30;47.80;;;;;;4931681;28;93073;-74
2022/01/14 12:08:10;;;;;;;7.90;2.72;;;19.30;47.90;;;;;;4919656;28;93237;-73
2022/01/14 12:10:38;;;;;;;8.90;2.80;;;19.30;47.90;;;;;;4892994;28;93113;-75
2022/01/14 12:16:37;;;;;;;10.70;2.75;;;19.40;47.70;;;;;;4894031;28;92957;-73
2022/01/14 12:19:07;;;;;;;5.93;2.33;;;19.40;47.60;;;;;;4894596;28;94461;-75
2022/01/14 12:21:42;;;;;;;6.80;2.20;;;19.40;47.60;;;;;;4895044;28;92509;-75
2022/01/14 12:24:27;;;;;;;7.57;2.65;;;19.40;47.60;;;;;;4895234;28;92975;-75
2022/01/14 12:26:52;;;;;;;6.32;2.80;;;19.30;47.60;;;;;;4892397;28;97467;-75
2022/01/14 12:29:19;;;;;;;6.30;2.67;;;19.30;47.70;;;;;;4914006;28;96170;-74
2022/01/14 12:32:02;;;;;;;7.80;2.65;;;19.30;47.80;;;;;;4931872;28;92937;-74
2022/01/14 12:34:29;;;;;;;5.53;2.45;;;19.30;47.80;;;;;;4932433;28;92498;-74
2022/01/14 12:36:55;;;;;;;5.07;2.00;;;19.20;48.00;;;;;;4933583;28;93012;-73
2022/01/14 12:39:21;;;;;;;7.53;2.55;;;19.20;48.00;;;;;;4931720;28;92758;-74
2022/01/14 12:41:53;;;;;;;6.90;2.08;;;19.20;48.80;;;;;;4922533;28;92545;-73
2022/01/14 12:44:18;;;;;;;4.45;1.77;;;19.30;47.70;;;;;;4894353;28;92207;-73
2022/01/14 12:49:23;;;;;;;4.47;2.25;;;19.30;47.50;;;;;;4914816;28;92683;-73
2022/01/14 12:52:06;;;;;;;6.65;2.13;;;19.30;47.40;;;;;;4931933;28;94982;-74
2022/01/14 12:54:36;;;;;;;5.57;1.97;;;19.30;47.50;;;;;;4934034;28;92754;-74
2022/01/14 12:57:03;;;;;;;5.90;2.13;;;19.20;47.50;;;;;;4931804;28;93318;-73
2022/01/14 12:59:42;;;;;;;5.32;2.03;;;19.20;47.50;;;;;;4932908;28;94125;-73
2022/01/14 13:02:18;;;;;;;5.43;1.83;;;19.20;47.50;;;;;;4932359;28;92742;-73
2022/01/14 13:04:44;;;;;;;7.57;2.25;;;19.30;47.40;;;;;;4933207;28;92661;-74
2022/01/14 13:07:11;;;;;;;6.20;1.90;;;19.30;47.30;;;;;;4931993;28;94122;-74
2022/01/14 13:09:40;;;;;;;3.83;1.80;;;19.30;47.20;;;;;;4933616;28;93975;-74
2022/01/14 13:12:10;;;;;;;6.72;2.33;;;19.30;47.10;;;;;;4935794;28;92944;-74
2022/01/14 13:14:48;;;;;;;5.30;1.70;;;19.40;47.00;;;;;;4934167;28;93328;-75
2022/01/14 13:17:28;;;;;;;6.65;1.92;;;19.40;46.80;;;;;;4925790;28;96185;-74
2022/01/14 13:20:15;;;;;;;4.03;1.98;;;19.50;46.70;;;;;;4935227;28;96831;-74
2022/01/14 13:22:43;;;;;;;7.90;2.10;;;19.50;46.80;;;;;;4935384;28;92464;-74
2022/01/14 13:25:30;;;;;;;6.03;1.80;;;19.50;46.50;;;;;;4926166;28;92935;-74
2022/01/14 13:27:58;;;;;;;5.20;1.92;;;19.50;46.50;;;;;;4911854;28;92997;-74
2022/01/14 13:30:44;;;;;;;5.22;1.60;;;19.50;46.60;;;;;;4896923;28;93816;-73
2022/01/14 13:33:12;;;;;;;3.97;1.90;;;19.40;46.40;;;;;;4897685;28;92536;-74
2022/01/14 13:35:41;;;;;;;4.88;2.08;;;19.40;46.60;;;;;;4898161;28;92109;-74
2022/01/14 13:38:13;;;;;;;5.20;1.90;;;19.30;46.60;;;;;;4899057;28;94346;-73
2022/01/14 13:40:41;;;;;;;6.22;2.10;;;19.30;46.80;;;;;;4901563;28;93220;-71
2022/01/14 13:43:21;;;;;;;4.78;1.52;;;19.30;46.80;;;;;;4897531;28;94938;-74
2022/01/14 13:45:53;;;;;;;5.40;2.00;;;19.30;46.80;;;;;;4899237;28;92468;-75
2022/01/14 13:48:25;;;;;;;3.95;1.77;;;19.30;46.70;;;;;;4915300;28;94085;-75
2022/01/14 13:50:53;;;;;;;6.55;2.30;;;19.30;46.60;;;;;;4922682;28;94220;-75
2022/01/14 13:53:23;;;;;;;9.63;1.77;;;19.40;46.60;;;;;;4916864;28;92925;-74
2022/01/14 13:55:51;;;;;;;11.45;2.13;;;19.40;46.60;;;;;;4916232;28;93006;-74
2022/01/14 13:58:23;;;;;;;7.22;2.25;;;19.40;46.70;;;;;;4916715;28;93847;-77
2022/01/14 14:00:52;;;;;;;11.70;2.50;;;19.30;46.70;;;;;;4916432;28;93255;-75
2022/01/14 14:03:42;;;;;;;16.30;2.35;;;19.30;47.00;;;;;;4915584;28;92559;-75
2022/01/14 14:06:21;;;;;;;13.82;2.22;;;19.30;47.40;;;;;;4917506;28;92834;-77
2022/01/14 14:17:05;;;;;;;15.00;2.25;;;19.10;48.60;;;;;;4916621;28;94207;-77
2022/01/14 14:19:55;;;;;;;15.70;2.33;;;19.10;48.80;;;;;;4916564;28;93841;-76
2022/01/14 14:22:33;;;;;;;11.38;2.15;;;19.10;49.00;;;;;;4916352;28;93982;-77
2022/01/14 14:25:22;;;;;;;9.10;2.38;;;19.00;49.10;;;;;;4916243;28;92622;-76
2022/01/14 14:28:06;;;;;;;10.60;2.47;;;19.00;49.30;;;;;;4916821;28;91773;-76
2022/01/14 14:30:38;;;;;;;10.65;2.25;;;19.00;49.50;;;;;;4916724;28;94350;-76
2022/01/14 14:33:05;;;;;;;9.80;2.22;;;19.10;49.60;;;;;;4916947;28;92845;-76
2022/01/14 14:35:35;;;;;;;9.40;2.42;;;19.20;49.60;;;;;;4915105;28;95009;-76
2022/01/14 14:38:04;;;;;;;8.57;1.98;;;19.30;49.40;;;;;;4917219;28;94244;-76
2022/01/14 14:40:32;;;;;;;13.55;2.20;;;19.30;49.40;;;;;;4916850;28;93984;-76
2022/01/14 14:42:59;;;;;;;11.63;2.42;;;19.30;49.30;;;;;;4917462;28;94086;-77
2022/01/14 14:45:25;;;;;;;10.80;2.08;;;19.30;49.30;;;;;;4918307;28;92682;-76
2022/01/14 14:47:52;;;;;;;10.48;2.00;;;19.30;49.40;;;;;;4915990;28;93163;-75
2022/01/14 14:50:22;;;;;;;17.70;2.22;;;19.30;49.40;;;;;;4916241;28;92960;-76
2022/01/14 14:52:49;;;;;;;8.93;2.13;;;19.20;49.50;;;;;;4916590;28;92790;-76
2022/01/14 14:55:16;;;;;;;8.88;2.03;;;19.20;49.50;;;;;;4918418;28;92498;-77
2022/01/14 14:57:42;;;;;;;8.70;2.00;;;19.10;49.60;;;;;;4918332;28;92920;-76
2022/01/14 15:00:12;;;;;;;10.73;2.13;;;19.10;49.60;;;;;;4914972;28;96644;-77
2022/01/14 15:02:43;;;;;;;8.82;1.95;;;19.10;49.70;;;;;;4916047;28;94896;-76
2022/01/14 15:05:11;;;;;;;10.00;1.58;;;19.00;49.70;;;;;;4916911;28;92856;-76
2022/01/14 15:07:38;;;;;;;11.00;2.22;;;19.00;49.80;;;;;;4915723;28;93337;-75
2022/01/14 15:10:04;;;;;;;7.18;1.83;;;19.10;49.80;;;;;;4916543;28;94258;-76
2022/01/14 15:12:31;;;;;;;9.98;2.00;;;19.10;49.60;;;;;;4915089;28;94515;-77
2022/01/14 15:15:06;;;;;;;7.55;1.70;;;19.20;49.50;;;;;;4915972;28;93109;-76
2022/01/14 15:18:11;;;;;;;7.68;1.70;;;19.20;49.30;;;;;;4915812;28;92142;-76